createdAt,value
2022-08-05T00:00:00.375Z,3.08
2022-08-05T00:02:28.841Z,2.97
2022-08-05T00:04:58.075Z,3.13
2022-08-05T00:07:59.748Z,3.10
2022-08-05T00:10:15.649Z,3.15
2022-08-05T00:12:55.825Z,2.90
2022-08-05T00:15:56.135Z,3.70
2022-08-05T00:18:21.628Z,3.00
2022-08-05T00:20:50.909Z,3.50
2022-08-05T00:23:44.406Z,3.65
2022-08-05T00:26:09.540Z,3.67
2022-08-05T00:28:38.074Z,3.65
2022-08-05T00:31:08.435Z,3.45
2022-08-05T00:34:56.994Z,3.75
2022-08-05T00:37:09.985Z,3.95
2022-08-05T00:39:16.571Z,4.57
2022-08-05T00:41:55.222Z,4.70
2022-08-05T00:44:30.968Z,4.40
2022-08-05T00:47:02.255Z,4.35
2022-08-05T00:49:44.620Z,4.30
2022-08-05T00:52:28.731Z,4.15
2022-08-05T00:54:58.382Z,3.92
2022-08-05T00:57:31.718Z,3.95
2022-08-05T01:00:11.008Z,4.43
2022-08-05T01:02:39.705Z,3.75
2022-08-05T01:05:10.185Z,3.45
2022-08-05T01:08:30.647Z,3.90
2022-08-05T01:10:31.772Z,3.60
2022-08-05T01:13:13.196Z,3.72
2022-08-05T01:15:57.438Z,3.50
2022-08-05T01:18:33.755Z,3.60
2022-08-05T01:21:12.263Z,3.50
2022-08-05T01:24:13.226Z,3.28
2022-08-05T01:27:00.595Z,3.13
2022-08-05T01:29:51.778Z,3.17
2022-08-05T01:32:23.477Z,2.85
2022-08-05T01:34:59.537Z,3.17
2022-08-05T01:37:36.688Z,2.60
2022-08-05T01:40:13.923Z,2.95
2022-08-05T01:42:47.831Z,2.55
2022-08-05T01:45:20.711Z,3.17
2022-08-05T01:47:54.402Z,2.63
2022-08-05T01:50:29.419Z,2.67
2022-08-05T01:53:02.511Z,2.70
2022-08-05T01:55:36.239Z,2.97
2022-08-05T01:58:10.295Z,2.85
2022-08-05T02:00:49.893Z,3.35
2022-08-05T02:03:29.156Z,2.60
2022-08-05T02:06:03.738Z,3.75
2022-08-05T02:08:58.015Z,3.40
2022-08-05T02:11:34.140Z,3.05
2022-08-05T02:14:06.281Z,3.00
2022-08-05T02:16:42.154Z,3.05
2022-08-05T02:19:19.957Z,3.25
2022-08-05T02:21:55.103Z,3.53
2022-08-05T02:24:27.778Z,3.45
2022-08-05T02:26:59.729Z,3.08
2022-08-05T02:29:59.871Z,2.92
2022-08-05T02:32:31.842Z,3.33
2022-08-05T02:35:13.967Z,3.10
2022-08-05T02:37:47.628Z,3.72
2022-08-05T02:40:24.219Z,2.97
2022-08-05T02:42:55.017Z,3.03
2022-08-05T02:45:25.482Z,3.30
2022-08-05T02:48:07.531Z,3.13
2022-08-05T02:50:43.613Z,3.60
2022-08-05T02:53:19.032Z,3.40
2022-08-05T02:55:54.046Z,3.08
2022-08-05T02:58:30.362Z,3.50
2022-08-05T03:01:02.046Z,3.75
2022-08-05T03:03:34.104Z,3.70
2022-08-05T03:06:53.646Z,3.65
2022-08-05T03:09:14.961Z,3.50
2022-08-05T03:11:57.028Z,3.38
2022-08-05T03:14:26.664Z,3.30
2022-08-05T03:16:55.233Z,2.83
2022-08-05T03:19:33.035Z,3.40
2022-08-05T03:22:01.631Z,3.17
2022-08-05T03:24:31.348Z,2.63
2022-08-05T03:27:01.955Z,3.40
2022-08-05T03:29:45.837Z,3.13
2022-08-05T03:32:20.357Z,3.47
2022-08-05T03:34:51.620Z,3.17
2022-08-05T03:37:22.612Z,3.92
2022-08-05T03:39:58.526Z,3.38
2022-08-05T03:42:41.525Z,3.30
2022-08-05T03:45:22.620Z,3.80
2022-08-05T03:47:51.276Z,4.03
2022-08-05T03:50:21.446Z,3.42
2022-08-05T03:55:49.722Z,4.07
2022-08-05T03:56:05.326Z,3.38
2022-08-05T03:58:41.138Z,3.70
2022-08-05T04:01:11.288Z,3.85
2022-08-05T04:04:09.267Z,4.50
2022-08-05T04:06:34.929Z,4.68
2022-08-05T04:09:06.332Z,4.28
2022-08-05T04:11:47.432Z,4.40
2022-08-05T04:14:29.823Z,4.20
2022-08-05T04:17:00.867Z,4.60
2022-08-05T04:19:31.603Z,4.40
2022-08-05T04:22:08.670Z,4.60
2022-08-05T04:24:43.807Z,4.55
2022-08-05T04:27:14.129Z,5.00
2022-08-05T04:29:43.456Z,5.03
2022-08-05T04:32:11.458Z,5.82
2022-08-05T04:34:43.006Z,5.80
2022-08-05T04:37:12.901Z,6.40
2022-08-05T04:39:40.967Z,6.75
2022-08-05T04:42:09.759Z,6.38
2022-08-05T04:44:37.786Z,6.78
2022-08-05T04:47:09.744Z,6.97
2022-08-05T04:50:02.792Z,6.57
2022-08-05T04:52:29.018Z,6.47
2022-08-05T04:55:03.713Z,6.63
2022-08-05T04:57:47.967Z,6.60
2022-08-05T05:00:23.566Z,6.50
2022-08-05T05:02:52.303Z,6.57
2022-08-05T05:05:28.856Z,6.30
2022-08-05T05:08:02.661Z,6.80
2022-08-05T05:10:33.440Z,5.97
2022-08-05T05:13:04.375Z,6.55
2022-08-05T05:15:57.436Z,6.68
2022-08-05T05:18:28.453Z,6.68
2022-08-05T05:21:02.144Z,6.30
2022-08-05T05:24:02.372Z,6.65
2022-08-05T05:26:28.797Z,6.78
2022-08-05T05:29:02.542Z,7.03
2022-08-05T05:34:02.114Z,6.25
2022-08-05T05:36:31.234Z,6.03
2022-08-05T05:39:03.838Z,6.75
2022-08-05T05:41:40.857Z,6.88
2022-08-05T05:44:35.949Z,7.13
2022-08-05T05:47:04.316Z,6.90
2022-08-05T05:49:33.307Z,7.30
2022-08-05T05:52:06.008Z,6.53
2022-08-05T05:54:51.041Z,6.93
2022-08-05T05:57:20.613Z,6.45
2022-08-05T05:59:49.152Z,6.10
2022-08-05T06:02:30.998Z,6.38
2022-08-05T06:05:10.403Z,6.85
2022-08-05T06:07:58.047Z,6.25
2022-08-05T06:10:34.528Z,5.85
2022-08-05T06:13:05.983Z,6.85
2022-08-05T06:16:29.145Z,6.00
2022-08-05T06:18:21.970Z,6.43
2022-08-05T06:20:59.665Z,6.10
2022-08-05T06:23:27.713Z,5.95
2022-08-05T06:26:24.073Z,5.65
2022-08-05T06:28:53.116Z,5.75
2022-08-05T06:31:21.957Z,6.03
2022-08-05T06:34:07.675Z,6.63
2022-08-05T06:36:56.789Z,5.72
2022-08-05T06:39:27.174Z,5.30
2022-08-05T06:41:59.014Z,4.95
2022-08-05T06:44:27.333Z,5.30
2022-08-05T06:46:55.944Z,6.03
2022-08-05T06:50:01.495Z,5.18
2022-08-05T06:52:36.863Z,5.53
2022-08-05T06:55:00.825Z,6.45
2022-08-05T06:58:02.724Z,5.80
2022-08-05T07:00:24.448Z,6.13
2022-08-05T07:02:54.126Z,5.57
2022-08-05T07:05:36.884Z,5.60
2022-08-05T07:08:10.755Z,5.10
2022-08-05T07:10:53.083Z,4.22
2022-08-05T07:13:58.681Z,4.78
2022-08-05T07:17:59.526Z,6.07
2022-08-05T07:22:28.730Z,7.28
2022-08-05T07:25:23.057Z,7.85
2022-08-05T07:27:58.099Z,6.78
2022-08-05T07:30:33.945Z,7.38
2022-08-05T07:33:05.549Z,6.43
2022-08-05T07:36:04.136Z,7.25
2022-08-05T07:38:33.824Z,7.22
2022-08-05T07:42:09.498Z,7.60
2022-08-05T07:43:55.148Z,7.28
2022-08-05T07:46:27.514Z,7.10
2022-08-05T07:49:04.047Z,6.45
2022-08-05T07:51:36.663Z,6.43
2022-08-05T07:54:08.561Z,6.30
2022-08-05T07:57:00.287Z,6.32
2022-08-05T07:59:38.160Z,6.10
2022-08-05T08:02:16.871Z,5.65
2022-08-05T08:04:49.864Z,5.65
2022-08-05T08:07:22.162Z,5.18
2022-08-05T08:09:54.928Z,6.05
2022-08-05T08:12:35.182Z,5.28
2022-08-05T08:15:09.530Z,4.60
2022-08-05T08:17:50.638Z,4.38
2022-08-05T08:20:44.067Z,4.82
2022-08-05T08:24:00.263Z,3.80
2022-08-05T08:26:02.790Z,4.25
2022-08-05T08:28:36.394Z,3.65
2022-08-05T08:31:05.987Z,3.97
2022-08-05T08:33:38.393Z,3.67
2022-08-05T08:36:38.645Z,3.25
2022-08-05T08:38:56.825Z,3.53
2022-08-05T08:41:52.085Z,3.75
2022-08-05T08:45:20.552Z,4.25
2022-08-05T08:47:21.708Z,3.58
2022-08-05T08:50:07.820Z,3.88
2022-08-05T08:52:47.213Z,4.05
2022-08-05T08:56:02.177Z,3.40
2022-08-05T08:58:09.781Z,3.38
2022-08-05T09:00:38.144Z,3.40
2022-08-05T09:03:08.396Z,3.45
2022-08-05T09:06:09.234Z,3.38
2022-08-05T09:08:27.478Z,3.03
2022-08-05T09:10:58.660Z,3.10
2022-08-05T09:13:31.808Z,2.83
2022-08-05T09:16:16.928Z,3.13
2022-08-05T09:18:45.496Z,3.47
2022-08-05T09:21:20.831Z,2.92
2022-08-05T09:24:03.788Z,3.08
2022-08-05T09:26:34.805Z,2.97
2022-08-05T09:29:08.992Z,2.95
2022-08-05T09:32:41.271Z,3.00
2022-08-05T09:34:26.045Z,3.25
2022-08-05T09:36:59.979Z,3.15
2022-08-05T09:39:45.713Z,2.95
2022-08-05T09:42:23.323Z,3.15
2022-08-05T09:44:56.063Z,3.35
2022-08-05T09:47:29.691Z,2.97
2022-08-05T09:50:18.231Z,2.70
2022-08-05T09:53:04.373Z,2.88
2022-08-05T09:55:57.297Z,3.33
2022-08-05T09:58:25.789Z,3.00
2022-08-05T10:00:59.964Z,2.85
2022-08-05T10:03:38.676Z,3.15
2022-08-05T10:06:20.848Z,3.78
2022-08-05T10:08:54.077Z,3.50
2022-08-05T10:11:23.927Z,3.38
2022-08-05T10:13:59.442Z,3.10
2022-08-05T10:16:34.063Z,3.20
2022-08-05T10:19:09.175Z,3.80
2022-08-05T10:21:40.790Z,3.40
2022-08-05T10:24:13.431Z,2.90
2022-08-05T10:26:49.045Z,3.17
2022-08-05T10:30:05.718Z,3.20
2022-08-05T10:32:54.149Z,3.45
2022-08-05T10:35:00.921Z,3.05
2022-08-05T10:37:44.375Z,3.45
2022-08-05T10:40:27.815Z,2.97
2022-08-05T10:43:04.723Z,2.85
2022-08-05T10:45:41.758Z,3.15
2022-08-05T10:48:39.521Z,3.17
2022-08-05T10:51:23.213Z,3.42
2022-08-05T10:54:00.804Z,3.00
2022-08-05T10:56:37.657Z,3.08
2022-08-05T10:59:12.576Z,3.38
2022-08-05T11:02:14.432Z,2.95
2022-08-05T11:04:57.049Z,3.58
2022-08-05T11:07:32.845Z,3.22
2022-08-05T11:10:27.361Z,3.22
2022-08-05T11:12:57.462Z,3.38
2022-08-05T11:15:59.209Z,2.88
2022-08-05T11:18:32.285Z,3.05
2022-08-05T11:21:02.538Z,3.50
2022-08-05T11:24:02.795Z,2.67
2022-08-05T11:26:33.037Z,3.13
2022-08-05T11:29:12.890Z,3.05
2022-08-05T11:31:57.004Z,2.90
2022-08-05T11:34:38.695Z,3.00
2022-08-05T11:38:28.421Z,3.22
2022-08-05T11:40:00.621Z,3.55
2022-08-05T11:42:38.081Z,3.17
2022-08-05T11:45:23.074Z,3.30
2022-08-05T11:47:55.291Z,3.10
2022-08-05T11:50:23.726Z,3.50
2022-08-05T11:52:57.656Z,2.97
2022-08-05T11:55:31.584Z,3.08
2022-08-05T11:58:09.650Z,3.20
2022-08-05T12:00:44.460Z,3.40
2022-08-05T12:03:28.930Z,3.15
2022-08-05T12:06:01.812Z,3.30
2022-08-05T12:08:31.444Z,3.22
2022-08-05T12:11:05.709Z,3.30
2022-08-05T12:13:48.872Z,3.50
2022-08-05T12:16:25.429Z,3.35
2022-08-05T12:18:55.458Z,3.58
2022-08-05T12:21:30.241Z,3.92
2022-08-05T12:24:06.759Z,3.60
2022-08-05T12:26:36.727Z,3.65
2022-08-05T12:29:09.352Z,3.70
2022-08-05T12:31:47.619Z,3.40
2022-08-05T12:34:21.404Z,3.60
2022-08-05T12:36:53.177Z,3.97
2022-08-05T12:39:21.662Z,4.03
2022-08-05T12:41:51.495Z,3.55
2022-08-05T12:44:33.477Z,3.80
2022-08-05T12:47:04.339Z,3.30
2022-08-05T12:50:02.068Z,3.75
2022-08-05T12:52:39.293Z,3.92
2022-08-05T12:55:23.520Z,4.03
2022-08-05T12:58:39.058Z,3.80
2022-08-05T13:02:03.099Z,4.03
2022-08-05T13:03:42.431Z,4.70
2022-08-05T13:06:18.091Z,5.05
2022-08-05T13:08:52.444Z,4.40
2022-08-05T13:12:01.065Z,4.38
2022-08-05T13:14:19.360Z,5.05
2022-08-05T13:16:56.436Z,5.47
2022-08-05T13:19:27.359Z,5.30
2022-08-05T13:22:15.315Z,5.32
2022-08-05T13:25:00.779Z,4.85
2022-08-05T13:27:38.008Z,5.05
2022-08-05T13:30:34.733Z,5.28
2022-08-05T13:32:57.095Z,4.53
2022-08-05T13:35:47.300Z,4.63
2022-08-05T13:38:30.312Z,4.53
2022-08-05T13:41:00.347Z,5.38
2022-08-05T13:43:45.131Z,4.85
2022-08-05T13:46:26.468Z,4.22
2022-08-05T13:49:10.555Z,4.60
2022-08-05T13:51:45.836Z,4.90
2022-08-05T13:54:16.631Z,4.82
2022-08-05T13:56:50.698Z,4.72
2022-08-05T13:59:24.235Z,4.65
2022-08-05T14:01:57.470Z,5.10
2022-08-05T14:04:50.138Z,5.15
2022-08-05T14:08:00.724Z,5.07
2022-08-05T14:10:18.628Z,5.35
2022-08-05T14:12:48.483Z,5.28
2022-08-05T14:16:08.773Z,5.05
2022-08-05T14:18:06.183Z,5.13
2022-08-05T14:20:47.183Z,5.97
2022-08-05T14:23:23.808Z,5.93
2022-08-05T14:25:54.254Z,5.80
2022-08-05T14:28:26.444Z,5.85
2022-08-05T14:30:56.085Z,5.55
2022-08-05T14:33:24.380Z,6.03
2022-08-05T14:35:54.381Z,5.75
2022-08-05T14:38:31.612Z,6.35
2022-08-05T14:41:06.911Z,6.05
2022-08-05T14:43:57.500Z,6.43
2022-08-05T14:46:28.529Z,6.47
2022-08-05T14:49:06.714Z,6.78
2022-08-05T14:51:37.656Z,6.32
2022-08-05T14:54:26.870Z,7.10
2022-08-05T14:56:56.512Z,7.07
2022-08-05T14:59:25.187Z,6.32
2022-08-05T15:01:58.117Z,6.78
2022-08-05T15:04:27.466Z,7.32
2022-08-05T15:06:57.310Z,8.00
2022-08-05T15:09:53.769Z,7.30
2022-08-05T15:12:16.768Z,7.00
2022-08-05T15:14:50.482Z,7.30
2022-08-05T15:17:46.895Z,8.10
2022-08-05T15:20:19.038Z,7.85
2022-08-05T15:22:54.345Z,8.13
2022-08-05T15:25:51.728Z,8.32
2022-08-05T15:28:16.098Z,7.70
2022-08-05T15:30:45.868Z,8.30
2022-08-05T15:33:56.417Z,8.30
2022-08-05T15:36:04.854Z,8.40
2022-08-05T15:38:40.803Z,7.10
2022-08-05T15:41:22.564Z,7.78
2022-08-05T15:43:54.380Z,7.22
2022-08-05T15:46:24.033Z,6.65
2022-08-05T15:49:01.152Z,6.68
2022-08-05T15:52:12.717Z,6.63
2022-08-05T15:54:34.459Z,6.03
2022-08-05T15:57:07.663Z,5.80
2022-08-05T15:59:38.180Z,5.45
2022-08-05T16:02:09.558Z,4.72
2022-08-05T16:04:43.405Z,4.38
2022-08-05T16:07:12.373Z,3.85
2022-08-05T16:09:42.230Z,4.40
2022-08-05T16:12:13.084Z,3.70
2022-08-05T16:14:43.626Z,3.47
2022-08-05T16:17:12.254Z,3.33
2022-08-05T16:20:04.758Z,3.00
2022-08-05T16:22:33.910Z,3.33
2022-08-05T16:25:05.356Z,2.78
2022-08-05T16:27:47.261Z,2.75
2022-08-05T16:30:29.420Z,2.75
2022-08-05T16:32:58.079Z,2.55
2022-08-05T16:35:28.539Z,2.42
2022-08-05T16:38:15.172Z,1.98
2022-08-05T16:40:55.198Z,2.25
2022-08-05T16:43:32.346Z,1.95
2022-08-05T16:46:04.889Z,2.00
2022-08-05T16:48:37.746Z,1.63
2022-08-05T16:51:09.105Z,1.60
2022-08-05T16:54:02.377Z,2.00
2022-08-05T16:56:29.231Z,1.70
2022-08-05T16:59:00.923Z,1.40
2022-08-05T17:01:54.560Z,1.70
2022-08-05T17:04:26.625Z,1.65
2022-08-05T17:06:57.055Z,1.40
2022-08-05T17:09:29.904Z,1.30
2022-08-05T17:11:59.221Z,1.52
2022-08-05T17:14:37.768Z,1.50
2022-08-05T17:17:09.425Z,1.63
2022-08-05T17:19:46.145Z,1.25
2022-08-05T17:22:21.986Z,1.40
2022-08-05T17:24:57.675Z,1.50
2022-08-05T17:27:33.640Z,1.50
2022-08-05T17:30:12.138Z,1.40
2022-08-05T17:32:47.050Z,1.65
2022-08-05T17:35:20.816Z,1.20
2022-08-05T17:37:49.318Z,1.30
2022-08-05T17:40:22.247Z,1.35
2022-08-05T17:42:52.970Z,1.10
2022-08-05T17:45:37.935Z,1.25
2022-08-05T17:48:07.797Z,1.25
2022-08-05T17:50:35.889Z,1.30
2022-08-05T17:53:08.412Z,1.40
2022-08-05T17:55:39.667Z,1.25
2022-08-05T17:58:12.640Z,1.30
2022-08-05T18:00:47.842Z,1.27
2022-08-05T18:06:11.009Z,1.40
2022-08-05T18:08:44.937Z,1.23
2022-08-05T18:11:24.113Z,1.30
2022-08-05T18:14:04.316Z,1.13
2022-08-05T18:16:34.569Z,1.30
2022-08-05T18:19:04.365Z,1.25
2022-08-05T18:22:08.832Z,1.42
2022-08-05T18:24:23.388Z,1.30
2022-08-05T18:26:54.631Z,1.42
2022-08-05T18:29:40.688Z,1.52
2022-08-05T18:32:13.065Z,1.20
2022-08-05T18:34:41.544Z,1.35
2022-08-05T18:37:12.331Z,1.65
2022-08-05T18:40:29.546Z,1.20
2022-08-05T18:42:29.418Z,1.35
2022-08-05T18:44:57.625Z,1.20
2022-08-05T18:47:29.605Z,1.42
2022-08-05T18:50:19.485Z,1.25
2022-08-05T18:52:50.814Z,1.50
2022-08-05T18:55:21.733Z,1.40
2022-08-05T18:57:53.090Z,1.45
2022-08-05T19:00:28.513Z,1.25
2022-08-05T19:03:03.777Z,1.30
2022-08-05T19:06:12.021Z,1.30
2022-08-05T19:08:30.906Z,1.42
2022-08-05T19:11:02.726Z,1.52
2022-08-05T19:13:36.184Z,1.33
2022-08-05T19:16:24.527Z,1.70
2022-08-05T19:18:56.659Z,1.85
2022-08-05T19:21:29.430Z,1.27
2022-08-05T19:24:07.957Z,1.40
2022-08-05T19:26:43.755Z,1.30
2022-08-05T19:29:26.537Z,1.20
2022-08-05T19:32:04.392Z,1.15
2022-08-05T19:34:33.922Z,1.35
2022-08-05T19:37:02.017Z,1.27
2022-08-05T19:39:30.460Z,1.33
2022-08-05T19:42:07.739Z,1.50
2022-08-05T19:44:40.490Z,1.50
2022-08-05T19:47:15.047Z,1.30
2022-08-05T19:49:46.015Z,1.10
2022-08-05T19:52:30.300Z,1.33
2022-08-05T19:55:00.640Z,1.23
2022-08-05T19:57:49.270Z,1.20
2022-08-05T20:00:23.781Z,1.23
2022-08-05T20:02:52.525Z,1.20
2022-08-05T20:05:24.762Z,2.03
2022-08-05T20:07:57.677Z,1.20
2022-08-05T20:10:27.390Z,1.50
2022-08-05T20:12:56.997Z,1.63
2022-08-05T20:15:52.239Z,1.20
2022-08-05T20:18:32.749Z,1.58
2022-08-05T20:21:03.780Z,1.25
2022-08-05T20:23:39.903Z,1.58
2022-08-05T20:26:19.665Z,1.52
2022-08-05T20:28:50.175Z,1.40
2022-08-05T20:31:21.804Z,1.50
2022-08-05T20:33:51.622Z,1.42
2022-08-05T20:36:22.618Z,1.60
2022-08-05T20:38:53.553Z,1.73
2022-08-05T20:41:27.010Z,1.40
2022-08-05T20:44:18.807Z,1.40
2022-08-05T20:46:58.867Z,1.63
2022-08-05T20:49:26.839Z,1.75
2022-08-05T20:51:57.317Z,1.60
2022-08-05T20:54:42.786Z,1.33
2022-08-05T20:57:42.255Z,1.85
2022-08-05T21:00:20.011Z,1.80
2022-08-05T21:02:57.037Z,1.80
2022-08-05T21:05:25.870Z,1.90
2022-08-05T21:08:07.982Z,1.65
2022-08-05T21:10:36.671Z,1.70
2022-08-05T21:13:11.251Z,2.00
2022-08-05T21:15:44.522Z,2.20
2022-08-05T21:18:19.385Z,1.50
2022-08-05T21:20:51.670Z,1.90
2022-08-05T21:23:22.314Z,1.73
2022-08-05T21:25:50.887Z,1.70
2022-08-05T21:28:23.921Z,1.52
2022-08-05T21:30:58.609Z,1.60
2022-08-05T21:33:26.587Z,1.63
2022-08-05T21:36:07.924Z,1.70
2022-08-05T21:38:40.531Z,1.63
2022-08-05T21:41:09.526Z,1.70
2022-08-05T21:43:41.651Z,1.60
2022-08-05T21:46:11.931Z,1.60
2022-08-05T21:48:40.452Z,1.60
2022-08-05T21:51:25.206Z,1.70
2022-08-05T21:54:03.557Z,1.40
2022-08-05T21:56:32.127Z,1.40
2022-08-05T21:59:01.277Z,1.63
2022-08-05T22:01:36.405Z,1.70
2022-08-05T22:04:06.022Z,1.60
2022-08-05T22:06:42.176Z,2.05
2022-08-05T22:09:21.730Z,1.35
2022-08-05T22:11:50.609Z,1.55
2022-08-05T22:14:33.491Z,1.80
2022-08-05T22:17:06.648Z,1.70
2022-08-05T22:20:02.013Z,1.60
2022-08-05T22:22:27.430Z,1.85
2022-08-05T22:25:20.968Z,1.55
2022-08-05T22:28:11.009Z,1.85
2022-08-05T22:30:44.007Z,1.80
2022-08-05T22:33:55.396Z,2.17
2022-08-05T22:36:14.760Z,1.83
2022-08-05T22:38:43.937Z,1.58
2022-08-05T22:42:05.033Z,1.80
2022-08-05T22:44:07.922Z,1.60
2022-08-05T22:46:39.525Z,1.80
2022-08-05T22:49:12.456Z,2.00
2022-08-05T22:52:04.311Z,1.80
2022-08-05T22:54:36.637Z,1.77
2022-08-05T22:57:06.483Z,1.90
2022-08-05T22:59:42.506Z,2.08
2022-08-05T23:02:16.883Z,1.85
2022-08-05T23:04:51.655Z,2.17
2022-08-05T23:07:21.946Z,1.90
2022-08-05T23:09:57.934Z,1.85
2022-08-05T23:12:32.525Z,1.90
2022-08-05T23:15:03.334Z,1.90
2022-08-05T23:17:37.477Z,2.00
2022-08-05T23:20:16.313Z,1.75
2022-08-05T23:22:47.618Z,1.80
2022-08-05T23:25:53.203Z,1.67
2022-08-05T23:28:07.887Z,2.03
2022-08-05T23:30:40.539Z,1.73
2022-08-05T23:33:21.962Z,1.80
2022-08-05T23:35:55.886Z,1.30
2022-08-05T23:38:26.051Z,1.33
2022-08-05T23:40:54.941Z,1.38
2022-08-05T23:44:03.212Z,1.30
2022-08-05T23:46:20.289Z,1.37
2022-08-05T23:48:59.608Z,1.45
2022-08-05T23:51:51.723Z,1.45
2022-08-05T23:54:25.149Z,1.42
2022-08-05T23:56:55.217Z,1.67
2022-08-05T23:59:27.823Z,1.45
